createdAt,value
2024-02-29T00:00:45.637Z,60.38
2024-02-29T00:01:47.480Z,60.96
2024-02-29T00:02:49.083Z,60.85
2024-02-29T00:03:51.066Z,60.18
2024-02-29T00:04:52.589Z,60.53
2024-02-29T00:05:55.226Z,60.22
2024-02-29T00:06:56.869Z,60.81
2024-02-29T00:07:58.432Z,60.87
2024-02-29T00:09:00.058Z,60.83
2024-02-29T00:10:01.680Z,61.02
2024-02-29T00:11:03.809Z,61.29
2024-02-29T00:12:06.231Z,61.53
2024-02-29T00:13:07.815Z,60.74
2024-02-29T00:14:09.918Z,61.44
2024-02-29T00:15:12.046Z,61.13
2024-02-29T00:16:14.702Z,60.75
2024-02-29T00:17:16.770Z,60.65
2024-02-29T00:18:18.285Z,60.45
2024-02-29T00:19:21.131Z,60.42
2024-02-29T00:20:22.678Z,60.58
2024-02-29T00:21:24.471Z,61.29
2024-02-29T00:22:26.017Z,61.18
2024-02-29T00:23:27.516Z,61.14
2024-02-29T00:24:29.578Z,60.85
2024-02-29T00:25:31.271Z,60.84
2024-02-29T00:26:32.767Z,61.00
2024-02-29T00:27:34.471Z,61.08
2024-02-29T00:28:36.081Z,60.71
2024-02-29T00:29:39.751Z,61.00
2024-02-29T00:30:41.328Z,60.92
2024-02-29T00:31:44.719Z,60.56
2024-02-29T00:32:47.527Z,60.59
2024-02-29T00:33:49.156Z,60.56
2024-02-29T00:34:51.139Z,60.84
2024-02-29T00:36:02.215Z,60.63
2024-02-29T00:37:06.622Z,59.97
2024-02-29T00:38:08.176Z,60.92
2024-02-29T00:39:14.830Z,60.81
2024-02-29T00:40:17.383Z,60.69
2024-02-29T00:41:19.016Z,60.25
2024-02-29T00:42:20.531Z,60.12
2024-02-29T00:43:22.014Z,60.64
2024-02-29T00:44:23.522Z,61.16
2024-02-29T00:45:25.112Z,61.02
2024-02-29T00:46:26.611Z,60.76
2024-02-29T00:47:28.147Z,61.01
2024-02-29T00:48:29.781Z,60.88
2024-02-29T00:49:32.110Z,61.11
2024-02-29T00:50:34.144Z,60.77
2024-02-29T00:51:35.793Z,60.91
2024-02-29T00:52:39.138Z,61.10
2024-02-29T00:53:40.777Z,61.38
2024-02-29T00:54:42.920Z,61.72
2024-02-29T00:55:44.787Z,61.68
2024-02-29T00:56:46.415Z,61.22
2024-02-29T00:57:50.933Z,61.38
2024-02-29T00:58:52.523Z,61.85
2024-02-29T00:59:54.392Z,61.82
2024-02-29T01:00:56.088Z,60.98
2024-02-29T01:01:57.950Z,61.40
2024-02-29T01:02:59.521Z,62.14
2024-02-29T01:04:01.138Z,61.36
2024-02-29T01:05:03.014Z,61.37
2024-02-29T01:06:05.628Z,61.26
2024-02-29T01:07:07.757Z,61.25
2024-02-29T01:08:09.655Z,61.33
2024-02-29T01:09:11.186Z,61.73
2024-02-29T01:10:16.110Z,61.29
2024-02-29T01:11:17.742Z,61.17
2024-02-29T01:12:19.450Z,61.93
2024-02-29T01:13:20.995Z,61.82
2024-02-29T01:14:22.565Z,61.63
2024-02-29T01:15:24.488Z,61.49
2024-02-29T01:16:26.234Z,61.71
2024-02-29T01:17:27.792Z,61.58
2024-02-29T01:18:29.356Z,61.23
2024-02-29T01:19:30.877Z,61.36
2024-02-29T01:20:34.063Z,61.38
2024-02-29T01:21:35.590Z,62.33
2024-02-29T01:22:37.115Z,61.77
2024-02-29T01:23:38.651Z,62.17
2024-02-29T01:24:40.164Z,62.81
2024-02-29T01:25:41.886Z,62.15
2024-02-29T01:26:43.460Z,61.53
2024-02-29T01:27:45.035Z,61.57
2024-02-29T01:28:46.533Z,61.52
2024-02-29T01:29:48.091Z,61.91
2024-02-29T01:30:50.507Z,61.74
2024-02-29T01:31:52.152Z,62.01
2024-02-29T01:32:53.776Z,61.96
2024-02-29T01:33:55.416Z,61.80
2024-02-29T01:34:57.144Z,61.91
2024-02-29T01:35:58.765Z,61.96
2024-02-29T01:37:00.290Z,62.29
2024-02-29T01:38:01.828Z,62.45
2024-02-29T01:39:04.162Z,63.31
2024-02-29T01:40:06.635Z,62.44
2024-02-29T01:41:08.487Z,62.87
2024-02-29T01:42:11.318Z,62.92
2024-02-29T01:43:12.916Z,63.18
2024-02-29T01:44:14.457Z,63.09
2024-02-29T01:45:18.152Z,62.89
2024-02-29T01:46:19.842Z,62.74
2024-02-29T01:47:24.935Z,62.97
2024-02-29T01:48:26.566Z,63.06
2024-02-29T01:49:28.750Z,62.34
2024-02-29T01:50:30.777Z,63.21
2024-02-29T01:51:32.522Z,62.70
2024-02-29T01:52:35.306Z,62.74
2024-02-29T01:53:36.860Z,62.53
2024-02-29T01:54:40.166Z,62.37
2024-02-29T01:55:42.149Z,62.36
2024-02-29T01:56:43.825Z,62.37
2024-02-29T01:57:45.430Z,62.06
2024-02-29T01:58:47.090Z,62.61
2024-02-29T01:59:50.111Z,62.39
2024-02-29T02:00:52.814Z,61.47
2024-02-29T02:01:54.487Z,61.25
2024-02-29T02:02:56.762Z,62.07
2024-02-29T02:03:58.395Z,62.26
2024-02-29T02:04:59.984Z,63.30
2024-02-29T02:06:01.955Z,62.59
2024-02-29T02:07:04.726Z,62.78
2024-02-29T02:08:06.681Z,62.67
2024-02-29T02:09:08.260Z,62.66
2024-02-29T02:10:12.914Z,63.02
2024-02-29T02:11:14.853Z,62.41
2024-02-29T02:12:16.446Z,62.21
2024-02-29T02:13:17.978Z,62.27
2024-02-29T02:14:20.189Z,62.31
2024-02-29T02:15:22.412Z,63.02
2024-02-29T02:16:23.961Z,62.69
2024-02-29T02:17:25.451Z,63.21
2024-02-29T02:18:27.077Z,62.70
2024-02-29T02:19:28.609Z,63.19
2024-02-29T02:20:30.506Z,63.31
2024-02-29T02:21:32.064Z,63.09
2024-02-29T02:22:33.570Z,63.34
2024-02-29T02:23:35.102Z,63.12
2024-02-29T02:24:36.792Z,62.47
2024-02-29T02:25:38.377Z,63.00
2024-02-29T02:26:40.012Z,63.70
2024-02-29T02:27:41.632Z,63.37
2024-02-29T02:28:43.496Z,63.12
2024-02-29T02:29:44.985Z,62.87
2024-02-29T02:30:46.863Z,63.44
2024-02-29T02:31:48.407Z,63.30
2024-02-29T02:32:50.039Z,63.76
2024-02-29T02:33:51.577Z,63.20
2024-02-29T02:34:53.079Z,63.71
2024-02-29T02:35:54.622Z,63.72
2024-02-29T02:36:56.126Z,63.44
2024-02-29T02:37:57.637Z,63.14
2024-02-29T02:38:59.252Z,63.82
2024-02-29T02:40:01.074Z,63.56
2024-02-29T02:41:03.064Z,63.44
2024-02-29T02:42:04.909Z,62.64
2024-02-29T02:43:06.762Z,63.11
2024-02-29T02:44:08.299Z,63.12
2024-02-29T02:45:10.131Z,63.43
2024-02-29T02:46:12.568Z,63.51
2024-02-29T02:47:14.133Z,62.82
2024-02-29T02:48:15.630Z,63.56
2024-02-29T02:49:17.281Z,63.49
2024-02-29T02:50:18.819Z,63.64
2024-02-29T02:51:20.356Z,63.05
2024-02-29T02:52:22.047Z,63.10
2024-02-29T02:53:23.616Z,63.50
2024-02-29T02:54:25.133Z,63.71
2024-02-29T02:55:27.119Z,63.40
2024-02-29T02:56:28.632Z,63.39
2024-02-29T02:57:30.282Z,64.04
2024-02-29T02:58:31.828Z,62.94
2024-02-29T02:59:33.417Z,63.24
2024-02-29T03:00:35.367Z,63.25
2024-02-29T03:01:37.816Z,63.25
2024-02-29T03:02:41.185Z,63.00
2024-02-29T03:03:42.807Z,62.94
2024-02-29T03:04:44.324Z,63.26
2024-02-29T03:05:46.182Z,62.59
2024-02-29T03:06:48.304Z,63.84
2024-02-29T03:07:50.518Z,63.66
2024-02-29T03:08:52.765Z,63.79
2024-02-29T03:09:54.479Z,62.99
2024-02-29T03:10:56.364Z,63.03
2024-02-29T03:11:57.864Z,63.17
2024-02-29T03:12:59.397Z,63.40
2024-02-29T03:14:01.288Z,63.03
2024-02-29T03:15:02.802Z,63.21
2024-02-29T03:16:05.100Z,62.86
2024-02-29T03:17:06.643Z,62.95
2024-02-29T03:18:08.914Z,62.97
2024-02-29T03:19:10.650Z,63.46
2024-02-29T03:20:14.419Z,63.43
2024-02-29T03:21:16.667Z,62.58
2024-02-29T03:22:18.216Z,63.31
2024-02-29T03:23:21.294Z,63.04
2024-02-29T03:24:22.767Z,62.84
2024-02-29T03:25:24.183Z,62.38
2024-02-29T03:26:26.306Z,61.45
2024-02-29T03:27:27.828Z,62.07
2024-02-29T03:28:29.345Z,62.32
2024-02-29T03:29:32.760Z,62.74
2024-02-29T03:30:34.361Z,62.57
2024-02-29T03:31:36.579Z,63.07
2024-02-29T03:32:38.165Z,63.08
2024-02-29T03:33:39.802Z,63.04
2024-02-29T03:34:41.448Z,63.38
2024-02-29T03:35:42.932Z,62.75
2024-02-29T03:36:44.538Z,63.27
2024-02-29T03:37:46.051Z,63.26
2024-02-29T03:38:48.269Z,63.62
2024-02-29T03:39:49.894Z,62.87
2024-02-29T03:40:52.963Z,63.98
2024-02-29T03:41:54.759Z,62.23
2024-02-29T03:42:56.291Z,62.94
2024-02-29T03:43:57.838Z,62.91
2024-02-29T03:44:59.340Z,63.07
2024-02-29T03:46:00.866Z,63.38
2024-02-29T03:47:02.393Z,62.84
2024-02-29T03:48:04.106Z,62.54
2024-02-29T03:49:05.754Z,63.15
2024-02-29T03:50:07.683Z,63.65
2024-02-29T03:51:09.997Z,63.34
2024-02-29T03:52:11.730Z,63.39
2024-02-29T03:53:13.375Z,63.16
2024-02-29T03:54:14.914Z,62.71
2024-02-29T03:55:16.501Z,63.06
2024-02-29T03:56:18.617Z,62.92
2024-02-29T03:57:20.178Z,63.67
2024-02-29T03:58:21.760Z,62.69
2024-02-29T03:59:23.292Z,63.20
2024-02-29T04:00:24.804Z,62.82
2024-02-29T04:01:26.840Z,63.08
2024-02-29T04:02:29.165Z,62.98
2024-02-29T04:03:30.786Z,63.29
2024-02-29T04:04:32.352Z,63.09
2024-02-29T04:05:33.867Z,62.54
2024-02-29T04:06:35.471Z,63.02
2024-02-29T04:07:41.899Z,62.39
2024-02-29T04:08:43.423Z,62.50
2024-02-29T04:09:44.940Z,63.02
2024-02-29T04:10:49.770Z,63.67
2024-02-29T04:11:52.086Z,62.75
2024-02-29T04:12:53.608Z,62.67
2024-02-29T04:13:55.819Z,63.28
2024-02-29T04:14:57.695Z,63.12
2024-02-29T04:15:59.211Z,62.78
2024-02-29T04:17:02.045Z,63.11
2024-02-29T04:18:05.195Z,63.64
2024-02-29T04:19:07.097Z,63.35
2024-02-29T04:20:09.899Z,63.70
2024-02-29T04:21:11.623Z,63.74
2024-02-29T04:22:15.810Z,63.40
2024-02-29T04:23:17.530Z,62.97
2024-02-29T04:24:19.270Z,62.86
2024-02-29T04:25:24.010Z,63.31
2024-02-29T04:26:25.568Z,63.51
2024-02-29T04:27:27.125Z,63.63
2024-02-29T04:28:28.661Z,63.33
2024-02-29T04:29:30.357Z,63.18
2024-02-29T04:30:33.102Z,63.57
2024-02-29T04:31:34.710Z,64.20
2024-02-29T04:32:39.376Z,64.12
2024-02-29T04:33:41.642Z,64.19
2024-02-29T04:34:43.261Z,63.74
2024-02-29T04:35:44.798Z,63.80
2024-02-29T04:36:46.317Z,63.30
2024-02-29T04:37:48.914Z,63.53
2024-02-29T04:38:51.237Z,63.72
2024-02-29T04:39:52.877Z,63.37
2024-02-29T04:40:55.826Z,63.46
2024-02-29T04:41:57.459Z,63.05
2024-02-29T04:42:59.461Z,62.85
2024-02-29T04:44:01.084Z,63.14
2024-02-29T04:45:02.759Z,63.04
2024-02-29T04:46:04.467Z,63.56
2024-02-29T04:47:07.940Z,63.56
2024-02-29T04:48:09.538Z,63.20
2024-02-29T04:49:11.200Z,63.94
2024-02-29T04:50:12.778Z,63.40
2024-02-29T04:51:14.264Z,63.87
2024-02-29T04:52:16.118Z,63.72
2024-02-29T04:53:17.773Z,63.69
2024-02-29T04:54:19.564Z,63.05
2024-02-29T04:55:21.158Z,63.82
2024-02-29T04:56:22.813Z,63.62
2024-02-29T04:57:24.682Z,64.10
2024-02-29T04:58:26.154Z,63.86
2024-02-29T04:59:28.158Z,63.37
2024-02-29T05:00:29.673Z,63.35
2024-02-29T05:01:31.400Z,63.81
2024-02-29T05:02:34.851Z,63.63
2024-02-29T05:03:36.483Z,64.08
2024-02-29T05:04:38.639Z,63.54
2024-02-29T05:05:40.132Z,63.10
2024-02-29T05:06:41.634Z,63.17
2024-02-29T05:07:45.349Z,63.05
2024-02-29T05:08:46.870Z,63.15
2024-02-29T05:09:48.415Z,63.72
2024-02-29T05:10:49.985Z,63.36
2024-02-29T05:11:51.556Z,63.42
2024-02-29T05:12:54.941Z,63.24
2024-02-29T05:13:57.200Z,63.34
2024-02-29T05:14:58.924Z,64.24
2024-02-29T05:16:00.427Z,64.18
2024-02-29T05:17:02.092Z,63.49
2024-02-29T05:18:04.556Z,63.61
2024-02-29T05:19:06.090Z,63.77
2024-02-29T05:20:08.084Z,63.63
2024-02-29T05:21:09.616Z,63.89
2024-02-29T05:22:11.187Z,64.06
2024-02-29T05:23:13.160Z,64.05
2024-02-29T05:24:14.678Z,63.44
2024-02-29T05:25:16.402Z,63.71
2024-02-29T05:26:18.776Z,63.90
2024-02-29T05:27:20.321Z,63.67
2024-02-29T05:28:21.943Z,63.89
2024-02-29T05:29:23.441Z,63.46
2024-02-29T05:30:26.525Z,63.58
2024-02-29T05:31:27.972Z,62.96
2024-02-29T05:32:29.501Z,62.90
2024-02-29T05:33:31.545Z,62.69
2024-02-29T05:34:33.097Z,63.26
2024-02-29T05:35:35.068Z,63.01
2024-02-29T05:36:36.587Z,63.37
2024-02-29T05:37:38.124Z,63.03
2024-02-29T05:38:40.123Z,63.76
2024-02-29T05:39:41.859Z,63.19
2024-02-29T05:40:43.631Z,63.74
2024-02-29T05:41:45.215Z,63.71
2024-02-29T05:42:46.944Z,63.29
2024-02-29T05:43:49.064Z,63.11
2024-02-29T05:44:50.842Z,63.37
2024-02-29T05:45:52.593Z,63.30
2024-02-29T05:46:54.195Z,63.19
2024-02-29T05:47:55.730Z,63.09
2024-02-29T05:48:58.940Z,63.23
2024-02-29T05:50:00.514Z,63.31
2024-02-29T05:51:03.332Z,63.64
2024-02-29T05:52:05.110Z,63.76
2024-02-29T05:53:06.756Z,63.14
2024-02-29T05:54:08.671Z,63.36
2024-02-29T05:55:10.518Z,63.62
2024-02-29T05:56:14.752Z,63.07
2024-02-29T05:57:16.273Z,62.67
2024-02-29T05:58:19.383Z,63.47
2024-02-29T05:59:21.091Z,63.02
2024-02-29T06:00:25.389Z,62.74
2024-02-29T06:01:26.976Z,63.00
2024-02-29T06:02:28.877Z,62.58
2024-02-29T06:03:30.366Z,62.91
2024-02-29T06:04:31.880Z,63.73
2024-02-29T06:05:33.486Z,63.17
2024-02-29T06:06:35.608Z,62.97
2024-02-29T06:07:37.912Z,62.92
2024-02-29T06:08:39.894Z,63.25
2024-02-29T06:09:42.891Z,62.99
2024-02-29T06:10:47.884Z,62.91
2024-02-29T06:11:49.641Z,62.90
2024-02-29T06:12:51.219Z,62.49
2024-02-29T06:13:53.108Z,63.55
2024-02-29T06:14:54.601Z,63.38
2024-02-29T06:15:56.430Z,63.59
2024-02-29T06:16:58.014Z,63.95
2024-02-29T06:17:59.556Z,64.01
2024-02-29T06:19:01.232Z,63.86
2024-02-29T06:20:05.004Z,63.50
2024-02-29T06:21:06.508Z,63.55
2024-02-29T06:22:08.299Z,65.94
2024-02-29T06:23:09.834Z,66.62
2024-02-29T06:24:11.727Z,65.79
2024-02-29T06:25:13.390Z,64.47
2024-02-29T06:26:15.429Z,64.39
2024-02-29T06:27:18.337Z,63.98
2024-02-29T06:28:24.100Z,64.12
2024-02-29T06:29:26.462Z,63.67
2024-02-29T06:30:33.461Z,64.04
2024-02-29T06:31:35.367Z,65.40
2024-02-29T06:32:36.979Z,64.55
2024-02-29T06:33:38.571Z,64.29
2024-02-29T06:34:40.152Z,63.50
2024-02-29T06:35:42.175Z,63.82
2024-02-29T06:36:44.103Z,63.83
2024-02-29T06:37:45.705Z,63.75
2024-02-29T06:38:47.189Z,64.05
2024-02-29T06:39:49.041Z,63.90
2024-02-29T06:40:50.585Z,63.99
2024-02-29T06:41:52.108Z,63.65
2024-02-29T06:42:53.819Z,63.53
2024-02-29T06:43:55.391Z,63.27
2024-02-29T06:44:57.104Z,63.31
2024-02-29T06:46:01.597Z,62.85
2024-02-29T06:47:03.133Z,63.62
2024-02-29T06:48:05.422Z,63.46
2024-02-29T06:49:07.544Z,63.20
2024-02-29T06:50:10.284Z,63.73
2024-02-29T06:51:11.783Z,62.81
2024-02-29T06:52:13.400Z,63.48
2024-02-29T06:53:14.999Z,63.00
2024-02-29T06:54:16.564Z,63.65
2024-02-29T06:55:18.117Z,63.08
2024-02-29T06:56:19.897Z,63.17
2024-02-29T06:57:21.393Z,62.96
2024-02-29T06:58:22.996Z,63.20
2024-02-29T06:59:24.540Z,63.18
2024-02-29T07:00:26.148Z,65.12
2024-02-29T07:01:28.124Z,64.64
2024-02-29T07:02:29.799Z,63.73
2024-02-29T07:03:31.367Z,63.09
2024-02-29T07:04:33.215Z,62.70
2024-02-29T07:05:36.770Z,64.78
2024-02-29T07:06:38.553Z,64.19
2024-02-29T07:07:40.106Z,64.14
2024-02-29T07:08:41.761Z,64.89
2024-02-29T07:09:44.079Z,64.53
2024-02-29T07:10:45.694Z,63.57
2024-02-29T07:11:47.209Z,64.76
2024-02-29T07:12:49.187Z,63.92
2024-02-29T07:13:52.009Z,63.37
2024-02-29T07:14:53.597Z,63.37
2024-02-29T07:15:56.060Z,62.88
2024-02-29T07:16:57.629Z,63.23
2024-02-29T07:17:59.206Z,67.54
2024-02-29T07:19:00.785Z,68.19
2024-02-29T07:20:02.640Z,65.63
2024-02-29T07:21:05.476Z,64.08
2024-02-29T07:22:07.099Z,63.26
2024-02-29T07:23:11.009Z,66.16
2024-02-29T07:24:12.521Z,64.77
2024-02-29T07:25:14.315Z,63.96
2024-02-29T07:26:15.889Z,63.60
2024-02-29T07:27:17.412Z,62.71
2024-02-29T07:28:18.966Z,62.95
2024-02-29T07:29:20.737Z,62.40
2024-02-29T07:30:22.654Z,62.12
2024-02-29T07:31:24.626Z,62.57
2024-02-29T07:32:28.579Z,65.72
2024-02-29T07:33:32.344Z,64.38
2024-02-29T07:34:35.399Z,63.99
2024-02-29T07:35:37.131Z,65.10
2024-02-29T07:36:38.704Z,63.75
2024-02-29T07:37:40.791Z,63.52
2024-02-29T07:38:43.011Z,62.90
2024-02-29T07:39:44.539Z,66.50
2024-02-29T07:40:46.595Z,65.33
2024-02-29T07:41:48.407Z,64.73
2024-02-29T07:42:50.170Z,63.09
2024-02-29T07:43:51.749Z,62.17
2024-02-29T07:44:53.543Z,62.23
2024-02-29T07:45:55.125Z,63.25
2024-02-29T07:46:56.788Z,63.24
2024-02-29T07:47:58.817Z,63.70
2024-02-29T07:49:00.487Z,62.78
2024-02-29T07:50:04.463Z,62.41
2024-02-29T07:51:06.429Z,61.07
2024-02-29T07:52:08.036Z,61.28
2024-02-29T07:53:09.689Z,61.71
2024-02-29T07:54:11.217Z,61.48
2024-02-29T07:55:16.017Z,61.12
2024-02-29T07:56:17.992Z,60.89
2024-02-29T07:57:19.497Z,62.43
2024-02-29T07:58:21.150Z,61.93
2024-02-29T07:59:24.492Z,63.71
2024-02-29T08:00:26.469Z,62.18
2024-02-29T08:01:28.835Z,61.04
2024-02-29T08:02:30.373Z,61.11
2024-02-29T08:03:33.518Z,60.53
2024-02-29T08:04:35.236Z,60.17
2024-02-29T08:05:36.851Z,59.13
2024-02-29T08:06:38.364Z,60.77
2024-02-29T08:07:40.350Z,62.17
2024-02-29T08:08:42.591Z,60.70
2024-02-29T08:09:44.386Z,60.15
2024-02-29T08:10:46.281Z,59.29
2024-02-29T08:11:48.267Z,59.34
2024-02-29T08:12:49.897Z,61.87
2024-02-29T08:13:51.430Z,61.93
2024-02-29T08:14:53.028Z,63.53
2024-02-29T08:15:55.022Z,64.79
2024-02-29T08:16:56.577Z,64.86
2024-02-29T08:17:59.255Z,63.36
2024-02-29T08:19:00.916Z,63.17
2024-02-29T08:20:02.889Z,63.61
2024-02-29T08:21:05.242Z,62.67
2024-02-29T08:22:06.846Z,61.89
2024-02-29T08:23:08.396Z,61.30
2024-02-29T08:24:09.893Z,62.60
2024-02-29T08:25:11.731Z,61.74
2024-02-29T08:26:13.382Z,63.48
2024-02-29T08:27:14.973Z,61.78
2024-02-29T08:28:16.954Z,61.25
2024-02-29T08:29:19.261Z,60.59
2024-02-29T08:30:20.790Z,60.87
2024-02-29T08:31:22.425Z,59.50
2024-02-29T08:32:24.044Z,59.20
2024-02-29T08:33:25.561Z,57.75
2024-02-29T08:34:27.168Z,57.72
2024-02-29T08:35:28.814Z,58.46
2024-02-29T08:36:30.716Z,59.09
2024-02-29T08:37:32.234Z,61.06
2024-02-29T08:38:35.535Z,59.77
2024-02-29T08:39:39.500Z,58.57
2024-02-29T08:40:40.996Z,57.60
2024-02-29T08:41:42.960Z,56.80
2024-02-29T08:42:44.463Z,56.96
2024-02-29T08:43:45.966Z,56.77
2024-02-29T08:44:48.542Z,57.73
2024-02-29T08:45:51.089Z,60.04
2024-02-29T08:46:53.292Z,59.30
2024-02-29T08:47:54.864Z,57.75
2024-02-29T08:48:56.422Z,57.22
2024-02-29T08:49:57.987Z,56.37
2024-02-29T08:50:59.497Z,56.73
2024-02-29T08:52:01.128Z,56.68
2024-02-29T08:53:02.678Z,56.38
2024-02-29T08:54:09.774Z,57.38
2024-02-29T08:55:12.212Z,56.51
2024-02-29T08:56:14.321Z,56.74
2024-02-29T08:57:15.944Z,56.84
2024-02-29T08:58:17.545Z,55.96
2024-02-29T08:59:19.169Z,55.81
2024-02-29T09:00:20.798Z,54.87
2024-02-29T09:01:22.467Z,57.32
2024-02-29T09:02:24.235Z,60.02
2024-02-29T09:03:26.412Z,57.61
2024-02-29T09:04:28.048Z,58.09
2024-02-29T09:05:29.591Z,58.24
2024-02-29T09:06:40.806Z,57.70
2024-02-29T09:07:43.464Z,60.19
2024-02-29T09:08:45.041Z,61.25
2024-02-29T09:09:46.620Z,59.04
2024-02-29T09:10:48.219Z,59.00
2024-02-29T09:11:49.935Z,57.72
2024-02-29T09:12:51.447Z,56.45
2024-02-29T09:13:53.003Z,56.41
2024-02-29T09:14:54.498Z,56.58
2024-02-29T09:15:56.137Z,55.99
2024-02-29T09:16:58.065Z,55.21
2024-02-29T09:18:00.630Z,55.49
2024-02-29T09:19:04.329Z,54.46
2024-02-29T09:20:07.608Z,55.85
2024-02-29T09:21:09.435Z,55.07
2024-02-29T09:22:11.129Z,54.68
2024-02-29T09:23:12.649Z,54.10
2024-02-29T09:24:15.954Z,53.83
2024-02-29T09:25:20.834Z,53.43
2024-02-29T09:26:22.398Z,52.72
2024-02-29T09:27:23.952Z,52.57
2024-02-29T09:28:25.553Z,52.96
2024-02-29T09:29:27.996Z,52.79
2024-02-29T09:30:30.467Z,51.98
2024-02-29T09:31:32.897Z,51.94
2024-02-29T09:32:34.428Z,54.75
2024-02-29T09:33:35.971Z,53.69
2024-02-29T09:34:41.736Z,53.36
2024-02-29T09:35:48.248Z,51.99
2024-02-29T09:36:50.110Z,52.35
2024-02-29T09:37:51.660Z,51.96
2024-02-29T09:38:53.172Z,52.25
2024-02-29T09:39:54.807Z,52.69
2024-02-29T09:41:03.312Z,51.33
2024-02-29T09:42:15.458Z,51.52
2024-02-29T09:43:18.444Z,52.46
2024-02-29T09:44:20.260Z,55.49
2024-02-29T09:45:25.370Z,53.48
2024-02-29T09:46:27.378Z,52.05
2024-02-29T09:47:29.435Z,51.87
2024-02-29T09:48:31.104Z,52.30
2024-02-29T09:49:32.996Z,51.59
2024-02-29T09:50:34.525Z,50.97
2024-02-29T09:51:36.844Z,51.01
2024-02-29T09:52:39.830Z,51.81
2024-02-29T09:53:41.268Z,53.81
2024-02-29T09:54:42.962Z,51.81
2024-02-29T09:55:44.570Z,51.78
2024-02-29T09:56:49.132Z,51.47
2024-02-29T09:57:50.889Z,51.88
2024-02-29T09:58:52.777Z,51.15
2024-02-29T09:59:54.825Z,52.26
2024-02-29T10:00:57.073Z,52.15
2024-02-29T10:01:59.206Z,52.10
2024-02-29T10:03:02.045Z,51.79
2024-02-29T10:04:04.578Z,50.98
2024-02-29T10:05:10.409Z,51.58
2024-02-29T10:06:12.506Z,51.20
2024-02-29T10:07:16.183Z,50.82
2024-02-29T10:08:18.049Z,52.63
2024-02-29T10:09:19.651Z,51.52
2024-02-29T10:10:22.380Z,50.79
2024-02-29T10:11:31.088Z,50.06
2024-02-29T10:12:32.694Z,49.83
2024-02-29T10:13:38.755Z,49.45
2024-02-29T10:14:40.400Z,50.27
2024-02-29T10:15:42.712Z,50.53
2024-02-29T10:16:44.552Z,50.66
2024-02-29T10:17:46.763Z,50.27
2024-02-29T10:18:48.444Z,49.11
2024-02-29T10:19:53.396Z,48.94
2024-02-29T10:20:54.962Z,48.30
2024-02-29T10:21:58.022Z,48.14
2024-02-29T10:22:59.642Z,48.42
2024-02-29T10:24:01.236Z,48.36
2024-02-29T10:25:03.624Z,49.22
2024-02-29T10:26:06.039Z,47.77
2024-02-29T10:27:07.790Z,46.48
2024-02-29T10:28:13.874Z,47.99
2024-02-29T10:29:17.830Z,48.59
2024-02-29T10:30:19.848Z,52.00
2024-02-29T10:31:21.569Z,50.77
2024-02-29T10:32:23.106Z,49.08
2024-02-29T10:33:27.583Z,47.83
2024-02-29T10:34:29.418Z,49.68
2024-02-29T10:35:31.597Z,49.86
2024-02-29T10:36:33.725Z,47.88
2024-02-29T10:37:35.257Z,47.81
2024-02-29T10:38:38.473Z,46.93
2024-02-29T10:39:41.750Z,46.81
2024-02-29T10:40:43.604Z,46.61
2024-02-29T10:41:50.448Z,45.54
2024-02-29T10:42:55.469Z,46.44
2024-02-29T10:44:01.760Z,46.38
2024-02-29T10:45:04.086Z,46.76
2024-02-29T10:46:06.784Z,46.73
2024-02-29T10:47:09.681Z,47.19
2024-02-29T10:48:23.176Z,47.52
2024-02-29T10:49:31.441Z,48.12
2024-02-29T10:50:35.151Z,48.00
2024-02-29T10:51:46.240Z,46.71
2024-02-29T10:52:51.148Z,47.01
2024-02-29T10:54:03.764Z,46.93
2024-02-29T10:55:12.277Z,50.60
2024-02-29T10:56:23.427Z,52.88
2024-02-29T10:57:27.676Z,53.84
2024-02-29T10:58:37.874Z,50.99
2024-02-29T10:59:42.989Z,49.45
2024-02-29T11:00:44.785Z,49.48
2024-02-29T11:01:48.090Z,50.48
2024-02-29T11:02:50.131Z,49.78
2024-02-29T11:03:51.684Z,52.68
2024-02-29T11:04:54.116Z,51.20
2024-02-29T11:05:55.975Z,52.01
2024-02-29T11:06:57.953Z,50.14
2024-02-29T11:07:59.701Z,50.13
2024-02-29T11:09:03.204Z,48.96
2024-02-29T11:10:05.735Z,48.64
2024-02-29T11:11:13.140Z,49.05
2024-02-29T11:12:17.151Z,48.22
2024-02-29T11:13:20.328Z,47.94
2024-02-29T11:14:22.156Z,48.38
2024-02-29T11:15:27.714Z,48.25
2024-02-29T11:16:29.517Z,48.18
2024-02-29T11:17:32.472Z,47.81
2024-02-29T11:18:36.727Z,48.54
2024-02-29T11:19:47.457Z,47.33
2024-02-29T11:21:06.521Z,46.53
2024-02-29T11:22:14.562Z,45.42
2024-02-29T11:23:21.096Z,43.58
2024-02-29T11:24:23.825Z,43.69
2024-02-29T11:25:30.340Z,43.32
2024-02-29T11:26:33.763Z,43.18
2024-02-29T11:27:35.632Z,44.75
2024-02-29T11:28:43.346Z,45.14
2024-02-29T11:29:51.182Z,45.52
2024-02-29T11:31:08.094Z,45.37
2024-02-29T11:32:10.589Z,45.75
2024-02-29T11:33:13.221Z,46.07
2024-02-29T11:34:18.170Z,46.48
2024-02-29T11:35:19.953Z,46.02
2024-02-29T11:36:22.015Z,47.31
2024-02-29T11:37:26.688Z,46.15
2024-02-29T11:38:36.121Z,47.78
2024-02-29T11:39:41.632Z,47.57
2024-02-29T11:40:43.918Z,49.69
2024-02-29T11:41:45.559Z,49.62
2024-02-29T11:42:47.462Z,48.07
2024-02-29T11:43:50.413Z,47.75
2024-02-29T11:44:52.109Z,46.17
2024-02-29T11:45:53.625Z,46.48
2024-02-29T11:46:55.500Z,45.94
2024-02-29T11:47:57.366Z,48.70
2024-02-29T11:48:59.356Z,48.57
2024-02-29T11:50:01.858Z,47.38
2024-02-29T11:51:04.404Z,46.35
2024-02-29T11:52:06.021Z,47.53
2024-02-29T11:53:08.039Z,48.52
2024-02-29T11:54:10.850Z,48.40
2024-02-29T11:55:12.758Z,47.54
2024-02-29T11:56:16.585Z,50.67
2024-02-29T11:57:18.544Z,49.26
2024-02-29T11:58:21.667Z,50.23
2024-02-29T11:59:24.450Z,49.39
2024-02-29T12:00:28.775Z,50.35
2024-02-29T12:01:32.607Z,48.80
2024-02-29T12:02:35.999Z,48.51
2024-02-29T12:03:37.794Z,48.56
2024-02-29T12:04:39.439Z,50.52
2024-02-29T12:05:41.078Z,52.14
2024-02-29T12:06:45.019Z,49.78
2024-02-29T12:07:48.149Z,49.58
2024-02-29T12:08:50.019Z,49.86
2024-02-29T12:09:51.651Z,50.02
2024-02-29T12:10:56.449Z,49.05
2024-02-29T12:11:58.677Z,47.58
2024-02-29T12:13:00.570Z,49.59
2024-02-29T12:14:02.383Z,47.91
2024-02-29T12:15:06.411Z,48.29
2024-02-29T12:16:08.883Z,47.39
2024-02-29T12:17:10.451Z,46.77
2024-02-29T12:18:12.023Z,46.96
2024-02-29T12:19:17.483Z,46.80
2024-02-29T12:20:19.112Z,46.12
2024-02-29T12:21:20.635Z,47.05
2024-02-29T12:22:22.496Z,46.52
2024-02-29T12:23:25.037Z,46.74
2024-02-29T12:24:27.304Z,46.61
2024-02-29T12:25:29.326Z,46.35
2024-02-29T12:26:30.952Z,46.95
2024-02-29T12:27:32.463Z,46.10
2024-02-29T12:28:34.090Z,46.51
2024-02-29T12:29:35.912Z,48.73
2024-02-29T12:30:37.710Z,50.79
2024-02-29T12:31:41.687Z,52.32
2024-02-29T12:32:44.404Z,53.44
2024-02-29T12:33:47.718Z,52.78
2024-02-29T12:34:49.352Z,51.77
2024-02-29T12:35:52.329Z,50.93
2024-02-29T12:36:57.026Z,49.65
2024-02-29T12:37:59.397Z,49.03
2024-02-29T12:39:02.230Z,48.10
2024-02-29T12:40:05.601Z,47.84
2024-02-29T12:41:08.102Z,48.53
2024-02-29T12:42:09.985Z,48.47
2024-02-29T12:43:18.256Z,52.00
2024-02-29T12:44:19.974Z,50.82
2024-02-29T12:45:22.046Z,49.11
2024-02-29T12:46:23.643Z,48.20
2024-02-29T12:47:25.256Z,47.90
2024-02-29T12:48:26.744Z,47.40
2024-02-29T12:49:28.350Z,47.00
2024-02-29T12:50:30.436Z,46.28
2024-02-29T12:51:31.948Z,46.63
2024-02-29T12:52:33.541Z,45.88
2024-02-29T12:53:35.337Z,46.82
2024-02-29T12:54:37.771Z,46.03
2024-02-29T12:55:39.368Z,46.80
2024-02-29T12:56:40.997Z,51.36
2024-02-29T12:57:42.589Z,52.28
2024-02-29T12:58:48.311Z,51.37
2024-02-29T12:59:49.950Z,52.53
2024-02-29T13:00:51.533Z,51.80
2024-02-29T13:01:54.510Z,49.92
2024-02-29T13:02:56.274Z,51.54
2024-02-29T13:03:57.900Z,50.43
2024-02-29T13:04:59.435Z,49.10
2024-02-29T13:06:01.143Z,47.53
2024-02-29T13:07:02.808Z,47.00
2024-02-29T13:08:07.440Z,50.07
2024-02-29T13:09:09.041Z,48.53
2024-02-29T13:10:10.751Z,48.53
2024-02-29T13:11:12.414Z,48.35
2024-02-29T13:12:14.042Z,48.18
2024-02-29T13:13:15.826Z,48.09
2024-02-29T13:14:17.464Z,47.83
2024-02-29T13:15:19.308Z,47.60
2024-02-29T13:16:20.869Z,47.76
2024-02-29T13:17:22.355Z,47.21
2024-02-29T13:18:24.369Z,47.52
2024-02-29T13:19:25.942Z,46.60
2024-02-29T13:20:27.618Z,49.30
2024-02-29T13:21:29.246Z,49.49
2024-02-29T13:22:30.723Z,47.89
2024-02-29T13:23:32.308Z,47.50